createdAt,value
2023-04-22T11:01:44.889Z,9.80
2023-04-22T11:03:17.276Z,13.00
2023-04-22T11:04:49.502Z,11.40
2023-04-22T11:06:27.930Z,15.20
2023-04-22T11:08:13.792Z,12.40
2023-04-22T11:09:46.528Z,14.40
2023-04-22T11:11:19.103Z,13.60
2023-04-22T11:12:51.062Z,13.80
2023-04-22T11:14:23.085Z,15.80
2023-04-22T11:15:55.391Z,9.20
2023-04-22T11:17:27.501Z,15.20
2023-04-22T11:18:59.453Z,15.40
2023-04-22T11:20:31.363Z,13.40
2023-04-22T11:22:03.175Z,13.20
2023-04-22T11:23:35.056Z,11.40
2023-04-22T11:25:07.658Z,13.00
2023-04-22T11:26:41.091Z,11.00
2023-04-22T11:28:12.977Z,12.00
2023-04-22T11:29:44.847Z,12.80
2023-04-22T11:31:16.844Z,10.60
2023-04-22T11:32:49.389Z,12.80
2023-04-22T11:34:21.382Z,11.60
2023-04-22T11:35:53.242Z,13.00
2023-04-22T11:37:25.323Z,12.80
2023-04-22T11:38:57.292Z,11.00
2023-04-22T11:40:33.381Z,14.00
2023-04-22T11:42:07.193Z,7.80
2023-04-22T11:43:47.770Z,14.00
2023-04-22T11:45:20.070Z,12.40
2023-04-22T11:46:51.884Z,10.00
2023-04-22T11:48:23.940Z,12.40
2023-04-22T11:49:59.214Z,13.60
2023-04-22T11:51:32.074Z,12.00
2023-04-22T11:53:21.048Z,9.60
2023-04-22T11:54:53.056Z,15.80
2023-04-22T11:56:25.190Z,14.40
2023-04-22T11:57:59.037Z,13.00
2023-04-22T11:59:31.170Z,9.80
2023-04-22T12:01:03.287Z,12.60
2023-04-22T12:02:35.311Z,9.80
2023-04-22T12:04:08.657Z,13.40
2023-04-22T12:05:45.296Z,8.00
2023-04-22T12:07:17.167Z,13.40
2023-04-22T12:08:49.945Z,13.60
2023-04-22T12:10:23.562Z,11.20
2023-04-22T12:11:55.449Z,10.00
2023-04-22T12:13:33.136Z,10.00
2023-04-22T12:15:13.603Z,9.40
2023-04-22T12:16:45.910Z,13.20
2023-04-22T12:18:18.047Z,12.40
2023-04-22T12:19:54.808Z,9.40
2023-04-22T12:21:28.593Z,10.80
2023-04-22T12:23:00.653Z,7.60
2023-04-22T12:24:32.484Z,12.00
2023-04-22T12:26:04.461Z,12.40
2023-04-22T12:27:37.052Z,12.00
2023-04-22T12:29:08.925Z,12.20
2023-04-22T12:30:40.907Z,10.60
2023-04-22T12:32:12.813Z,9.60
2023-04-22T12:33:45.016Z,12.60
2023-04-22T12:35:17.028Z,12.00
2023-04-22T12:36:49.104Z,12.00
2023-04-22T12:38:21.032Z,11.40
2023-04-22T12:39:52.991Z,7.60
2023-04-22T12:41:24.799Z,11.60
2023-04-22T12:42:56.742Z,10.60
2023-04-22T12:44:28.625Z,12.00
2023-04-22T12:46:00.565Z,9.60
2023-04-22T12:47:32.394Z,12.20
2023-04-22T12:49:04.362Z,13.00
2023-04-22T12:50:36.275Z,11.20
2023-04-22T12:52:08.173Z,7.40
2023-04-22T12:53:40.173Z,10.60
2023-04-22T12:55:12.292Z,12.40
2023-04-22T12:56:45.074Z,11.40
2023-04-22T12:58:17.023Z,12.40
2023-04-22T12:59:49.131Z,10.80
2023-04-22T13:01:21.229Z,12.40
2023-04-22T13:02:53.508Z,10.60
2023-04-22T13:04:25.594Z,12.00
2023-04-22T13:05:57.513Z,12.60
2023-04-22T13:07:29.480Z,18.00
2023-04-22T13:09:01.382Z,31.60
2023-04-22T13:10:33.367Z,28.20
2023-04-22T13:12:05.484Z,28.20
2023-04-22T13:13:37.381Z,28.00
2023-04-22T13:15:10.212Z,39.40
2023-04-22T13:16:42.215Z,44.20
2023-04-22T13:18:14.707Z,44.80
2023-04-22T13:19:47.648Z,52.80
2023-04-22T13:21:19.491Z,49.00
2023-04-22T13:22:53.469Z,52.25
2023-04-22T13:24:25.515Z,50.00
2023-04-22T13:25:57.424Z,53.75
2023-04-22T13:27:29.278Z,62.50
2023-04-22T13:29:02.632Z,51.50
2023-04-22T13:30:34.803Z,57.00
2023-04-22T13:32:06.736Z,56.75
2023-04-22T13:33:39.335Z,64.00
2023-04-22T13:35:11.542Z,60.00
2023-04-22T13:36:43.467Z,61.25
2023-04-22T13:38:15.286Z,73.50
2023-04-22T13:39:47.558Z,70.75
2023-04-22T13:41:19.475Z,68.75
2023-04-22T13:42:51.457Z,80.00
2023-04-22T13:44:23.369Z,81.00
2023-04-22T13:45:55.237Z,87.25
2023-04-22T13:47:27.252Z,117.25
2023-04-22T13:48:59.243Z,135.00
2023-04-22T13:50:31.325Z,121.25
2023-04-22T13:52:03.300Z,127.25
2023-04-22T13:53:35.294Z,130.75
2023-04-22T13:55:07.725Z,131.00
2023-04-22T13:56:39.645Z,136.50
2023-04-22T13:58:11.538Z,140.00
2023-04-22T13:59:43.532Z,160.00
2023-04-22T14:01:15.485Z,152.25
2023-04-22T14:02:47.537Z,166.50
2023-04-22T14:04:19.640Z,207.00
2023-04-22T14:05:52.961Z,195.67
2023-04-22T14:07:25.017Z,192.00
2023-04-22T14:08:57.079Z,205.25
2023-04-22T14:10:29.098Z,168.00
2023-04-22T14:12:01.343Z,180.50
2023-04-22T14:13:33.321Z,176.50
2023-04-22T14:15:06.689Z,185.50
2023-04-22T14:16:38.637Z,183.75
2023-04-22T14:18:11.077Z,156.00
2023-04-22T14:19:45.011Z,190.00
2023-04-22T14:21:16.974Z,193.75
2023-04-22T14:22:48.945Z,210.00
2023-04-22T14:24:20.967Z,181.00
2023-04-22T14:25:52.816Z,161.00
2023-04-22T14:27:24.680Z,163.00
2023-04-22T14:28:56.595Z,160.00
2023-04-22T14:30:28.477Z,172.50
2023-04-22T14:32:00.388Z,158.25
2023-04-22T14:33:32.284Z,184.00
2023-04-22T14:35:04.400Z,181.75
2023-04-22T14:36:36.728Z,133.00
2023-04-22T14:38:09.936Z,173.25
2023-04-22T14:39:42.100Z,158.25
2023-04-22T14:41:14.328Z,175.50
2023-04-22T14:42:46.624Z,200.33
2023-04-22T14:44:18.739Z,188.50
2023-04-22T14:45:50.593Z,164.75
2023-04-22T14:47:22.696Z,199.50
2023-04-22T14:48:54.565Z,181.50
2023-04-22T14:50:26.890Z,160.00
2023-04-22T14:52:00.919Z,166.00
2023-04-22T14:53:34.544Z,162.75
2023-04-22T14:55:19.287Z,151.50
2023-04-22T14:56:56.043Z,136.75
2023-04-22T14:58:31.741Z,153.25
2023-04-22T15:00:07.451Z,182.00
2023-04-22T15:01:41.983Z,167.50
2023-04-22T15:03:14.132Z,162.00
2023-04-22T15:04:46.089Z,128.25
2023-04-22T15:06:18.005Z,134.00
2023-04-22T15:07:51.016Z,137.00
2023-04-22T15:09:23.444Z,119.75
2023-04-22T15:10:55.811Z,115.75
2023-04-22T15:12:28.483Z,140.25
2023-04-22T15:14:00.358Z,120.50
2023-04-22T15:15:32.308Z,135.00
2023-04-22T15:17:04.852Z,114.00
2023-04-22T15:18:36.894Z,121.50
2023-04-22T15:20:09.416Z,117.00
2023-04-22T15:21:41.517Z,145.50
2023-04-22T15:23:13.470Z,137.75
2023-04-22T15:24:45.651Z,138.75
2023-04-22T15:26:17.578Z,107.25
2023-04-22T15:27:49.478Z,129.75
2023-04-22T15:29:21.368Z,121.00
2023-04-22T15:30:53.437Z,159.75
2023-04-22T15:32:25.726Z,158.00
2023-04-22T15:33:57.701Z,113.25
2023-04-22T15:35:29.589Z,104.40
2023-04-22T15:37:01.951Z,115.50
2023-04-22T15:38:33.951Z,99.20
2023-04-22T15:40:07.805Z,102.20
2023-04-22T15:41:40.127Z,100.60
2023-04-22T15:43:12.199Z,95.00
2023-04-22T15:44:44.040Z,107.20
2023-04-22T15:46:16.008Z,97.60
2023-04-22T15:47:47.940Z,104.20
2023-04-22T15:49:20.120Z,111.60
2023-04-22T15:50:52.002Z,105.80
2023-04-22T15:52:23.918Z,94.75
2023-04-22T15:53:57.456Z,104.60
2023-04-22T15:55:29.417Z,114.25
2023-04-22T15:57:02.160Z,103.00
2023-04-22T15:58:34.746Z,98.60
2023-04-22T16:00:13.020Z,90.50
2023-04-22T16:01:57.704Z,86.50
2023-04-22T16:03:29.732Z,97.20
2023-04-22T16:05:01.689Z,100.00
2023-04-22T16:06:33.840Z,75.00
2023-04-22T16:08:05.819Z,106.20
2023-04-22T16:09:37.847Z,81.25
2023-04-22T16:11:09.895Z,95.50
2023-04-22T16:12:42.450Z,77.25
2023-04-22T16:14:14.902Z,74.75
2023-04-22T16:15:46.979Z,83.00
2023-04-22T16:17:19.030Z,76.00
2023-04-22T16:18:51.161Z,75.75
2023-04-22T16:20:23.144Z,80.50
2023-04-22T16:21:55.828Z,77.75
2023-04-22T16:23:27.928Z,79.00
2023-04-22T16:24:59.813Z,79.00
2023-04-22T16:26:31.969Z,67.50
2023-04-22T16:28:03.925Z,81.25
2023-04-22T16:29:35.800Z,66.25
2023-04-22T16:31:09.113Z,64.00
2023-04-22T16:32:41.217Z,75.75
2023-04-22T16:34:13.057Z,66.25
2023-04-22T16:35:44.920Z,91.75
2023-04-22T16:37:16.822Z,89.25
2023-04-22T16:38:48.852Z,80.25
2023-04-22T16:40:20.808Z,83.75
2023-04-22T16:41:53.710Z,71.25
2023-04-22T16:43:25.476Z,69.75
2023-04-22T16:44:57.431Z,55.75
2023-04-22T16:46:29.563Z,51.25
2023-04-22T16:48:01.929Z,49.20
2023-04-22T16:49:34.048Z,46.20
2023-04-22T16:51:06.202Z,43.40
2023-04-22T16:52:40.758Z,48.80
2023-04-22T16:54:12.636Z,49.60
2023-04-22T16:55:44.544Z,52.20
2023-04-22T16:57:16.479Z,52.50
2023-04-22T16:58:48.344Z,62.75
2023-04-22T17:00:21.013Z,71.00
2023-04-22T17:01:52.976Z,81.75
2023-04-22T17:03:26.306Z,82.50
2023-04-22T17:04:58.206Z,89.50
2023-04-22T17:06:30.077Z,98.75
2023-04-22T17:08:02.220Z,93.75
2023-04-22T17:09:34.119Z,95.75
2023-04-22T17:11:06.331Z,84.25
2023-04-22T17:12:38.152Z,77.75
2023-04-22T17:14:10.240Z,75.00
2023-04-22T17:15:42.260Z,74.75
2023-04-22T17:17:14.167Z,67.00
2023-04-22T17:18:47.134Z,74.75
2023-04-22T17:20:19.219Z,65.50
2023-04-22T17:21:51.215Z,62.50
2023-04-22T17:23:23.794Z,53.00
2023-04-22T17:24:57.542Z,57.75
2023-04-22T17:26:29.430Z,56.25
2023-04-22T17:28:01.424Z,48.00
2023-04-22T17:29:33.429Z,43.40
2023-04-22T17:31:05.342Z,43.20
2023-04-22T17:32:37.315Z,47.60
2023-04-22T17:34:09.366Z,46.40
2023-04-22T17:35:41.536Z,49.40
2023-04-22T17:37:13.465Z,47.40
2023-04-22T17:38:46.086Z,47.40
2023-04-22T17:40:18.130Z,45.60
2023-04-22T17:41:50.048Z,47.80
2023-04-22T17:43:21.955Z,46.40
2023-04-22T17:44:53.836Z,42.60
2023-04-22T17:46:26.013Z,44.20
2023-04-22T17:47:57.944Z,41.00
2023-04-22T17:49:29.894Z,45.20
2023-04-22T17:51:05.243Z,44.60
2023-04-22T17:52:37.230Z,44.60
2023-04-22T17:54:09.098Z,45.40
2023-04-22T17:55:41.099Z,46.20
2023-04-22T17:57:13.043Z,44.40
2023-04-22T17:58:45.110Z,44.60
2023-04-22T18:00:18.255Z,45.00
2023-04-22T18:01:50.190Z,44.60
2023-04-22T18:03:22.165Z,49.60
2023-04-22T18:04:54.150Z,47.40
2023-04-22T18:06:26.059Z,44.80
2023-04-22T18:08:04.490Z,48.60
2023-04-22T18:09:36.374Z,46.40
2023-04-22T18:11:08.333Z,46.40
2023-04-22T18:12:40.535Z,50.40
2023-04-22T18:14:12.442Z,52.75
2023-04-22T18:15:44.337Z,55.75
2023-04-22T18:17:20.153Z,51.20
2023-04-22T18:18:52.050Z,55.00
2023-04-22T18:20:24.031Z,52.75
2023-04-22T18:22:00.150Z,53.25
2023-04-22T18:23:32.563Z,49.00
2023-04-22T18:25:04.845Z,48.60
2023-04-22T18:26:36.910Z,47.40
2023-04-22T18:28:08.783Z,50.40
2023-04-22T18:29:40.866Z,48.20
2023-04-22T18:31:12.966Z,58.25
2023-04-22T18:32:44.906Z,51.40
2023-04-22T18:34:17.021Z,46.80
2023-04-22T18:35:49.120Z,45.20
2023-04-22T18:37:21.929Z,56.00
2023-04-22T18:38:54.057Z,48.00
2023-04-22T18:40:25.883Z,49.50
2023-04-22T18:41:57.838Z,50.80
2023-04-22T18:43:29.721Z,51.20
2023-04-22T18:45:03.723Z,49.50
2023-04-22T18:46:36.526Z,53.25
2023-04-22T18:48:08.729Z,59.50
2023-04-22T18:49:40.834Z,53.50
2023-04-22T18:51:13.681Z,57.75
2023-04-22T18:52:45.776Z,63.75
2023-04-22T18:54:17.776Z,68.50
2023-04-22T18:55:49.812Z,55.50
2023-04-22T18:57:21.779Z,50.00
2023-04-22T18:58:55.291Z,47.40
2023-04-22T19:00:27.689Z,47.80
2023-04-22T19:01:59.693Z,45.80
2023-04-22T19:03:32.083Z,48.00
2023-04-22T19:05:04.442Z,51.25
2023-04-22T19:06:36.544Z,54.00
2023-04-22T19:08:08.392Z,51.75
2023-04-22T19:09:40.408Z,53.50
2023-04-22T19:11:12.363Z,58.25
2023-04-22T19:12:44.301Z,56.25
2023-04-22T19:14:16.273Z,54.00
2023-04-22T19:15:48.456Z,57.25
2023-04-22T19:17:20.420Z,57.75
2023-04-22T19:18:52.463Z,57.00
2023-04-22T19:20:24.308Z,61.00
2023-04-22T19:21:56.223Z,61.00
2023-04-22T19:23:28.215Z,69.00
2023-04-22T19:25:01.188Z,65.25
2023-04-22T19:26:33.459Z,70.75
2023-04-22T19:28:05.312Z,62.50
2023-04-22T19:29:37.321Z,61.25
2023-04-22T19:31:09.419Z,65.75
2023-04-22T19:32:41.440Z,78.25
2023-04-22T19:34:13.476Z,69.75
2023-04-22T19:35:45.937Z,75.00
2023-04-22T19:37:18.309Z,84.25
2023-04-22T19:38:50.373Z,76.00
2023-04-22T19:40:22.237Z,84.75
2023-04-22T19:41:54.161Z,86.00
2023-04-22T19:43:26.524Z,92.75
2023-04-22T19:44:59.618Z,87.00
2023-04-22T19:46:31.499Z,79.00
2023-04-22T19:48:04.203Z,92.00
2023-04-22T19:49:36.387Z,87.75
2023-04-22T19:51:10.197Z,86.50
2023-04-22T19:52:42.243Z,92.75
2023-04-22T19:54:14.618Z,89.50
2023-04-22T19:55:46.767Z,95.25
2023-04-22T19:57:18.597Z,94.25
2023-04-22T19:58:51.282Z,89.50
2023-04-22T20:00:23.325Z,90.50
2023-04-22T20:01:55.646Z,107.40
2023-04-22T20:03:28.071Z,92.80
2023-04-22T20:05:01.139Z,93.40
2023-04-22T20:06:34.028Z,91.80
2023-04-22T20:08:07.223Z,97.80
2023-04-22T20:09:39.184Z,103.00
2023-04-22T20:11:11.742Z,108.40
2023-04-22T20:12:47.024Z,100.80
2023-04-22T20:14:18.960Z,112.80
2023-04-22T20:15:51.059Z,99.40
2023-04-22T20:17:23.792Z,107.20
2023-04-22T20:18:55.823Z,105.00
2023-04-22T20:20:27.985Z,113.00
2023-04-22T20:22:00.243Z,109.50
2023-04-22T20:23:32.407Z,120.50
2023-04-22T20:25:05.629Z,129.00
2023-04-22T20:26:37.618Z,119.50
2023-04-22T20:28:10.855Z,111.75
2023-04-22T20:29:43.097Z,109.50
2023-04-22T20:31:18.511Z,123.00
2023-04-22T20:32:50.675Z,124.00
2023-04-22T20:34:23.034Z,118.25
2023-04-22T20:35:55.081Z,121.00
2023-04-22T20:37:31.862Z,117.25
2023-04-22T20:39:05.436Z,122.25
2023-04-22T20:40:37.290Z,121.75
2023-04-22T20:42:10.889Z,124.75
2023-04-22T20:43:42.766Z,113.75
2023-04-22T20:45:16.004Z,127.75
2023-04-22T20:46:48.959Z,122.25
2023-04-22T20:48:20.847Z,128.50
2023-04-22T20:49:52.699Z,120.75
2023-04-22T20:51:24.892Z,121.00
2023-04-22T20:52:57.468Z,132.00
2023-04-22T20:54:30.402Z,130.75
2023-04-22T20:56:02.728Z,126.00
2023-04-22T20:57:35.414Z,129.75
2023-04-22T20:59:07.694Z,123.75
2023-04-22T21:00:39.551Z,127.75
2023-04-22T21:02:11.632Z,136.75
2023-04-22T21:03:43.879Z,132.75
2023-04-22T21:05:16.217Z,131.50
2023-04-22T21:06:48.214Z,129.00
2023-04-22T21:08:23.075Z,133.50
2023-04-22T21:09:55.643Z,129.25
2023-04-22T21:11:28.572Z,132.00
2023-04-22T21:13:00.463Z,123.25
2023-04-22T21:14:32.352Z,119.75
2023-04-22T21:16:07.334Z,129.50
2023-04-22T21:17:41.267Z,133.00
2023-04-22T21:19:13.442Z,109.50
2023-04-22T21:20:45.653Z,128.25
2023-04-22T21:22:19.639Z,126.25
2023-04-22T21:23:52.672Z,130.50
2023-04-22T21:25:24.915Z,139.00
2023-04-22T21:26:58.352Z,134.25
2023-04-22T21:28:30.584Z,137.25
2023-04-22T21:30:02.555Z,126.25
2023-04-22T21:31:34.573Z,148.75
2023-04-22T21:33:06.497Z,132.75
2023-04-22T21:34:38.403Z,180.00
2023-04-22T21:36:10.432Z,140.25
2023-04-22T21:37:42.331Z,132.00
2023-04-22T21:39:14.232Z,128.75
2023-04-22T21:40:49.444Z,132.25
2023-04-22T21:42:21.746Z,120.75
2023-04-22T21:43:53.646Z,131.75
2023-04-22T21:45:25.578Z,130.75
2023-04-22T21:46:57.438Z,137.75
2023-04-22T21:48:29.267Z,137.50
2023-04-22T21:50:01.424Z,131.50
2023-04-22T21:51:33.350Z,146.00
2023-04-22T21:53:05.516Z,130.50
2023-04-22T21:54:37.383Z,133.00
2023-04-22T21:56:09.303Z,130.00
2023-04-22T21:57:41.258Z,132.75
2023-04-22T21:59:13.126Z,127.25
2023-04-22T22:00:45.165Z,130.75
2023-04-22T22:02:17.096Z,110.00
2023-04-22T22:03:49.142Z,123.50
2023-04-22T22:05:21.147Z,123.50
2023-04-22T22:06:53.393Z,134.00
2023-04-22T22:08:25.235Z,116.50
2023-04-22T22:09:57.291Z,123.50
2023-04-22T22:11:31.343Z,109.50
2023-04-22T22:13:03.440Z,109.00
2023-04-22T22:14:35.454Z,126.25
2023-04-22T22:16:07.360Z,123.25
2023-04-22T22:17:40.327Z,122.25
2023-04-22T22:19:12.700Z,111.50
2023-04-22T22:20:44.695Z,106.75
2023-04-22T22:22:16.599Z,111.40
2023-04-22T22:23:48.549Z,110.25
2023-04-22T22:25:20.489Z,108.60
2023-04-22T22:26:52.363Z,104.80
2023-04-22T22:28:24.274Z,100.00
2023-04-22T22:29:56.263Z,107.20
2023-04-22T22:31:29.225Z,108.40
2023-04-22T22:33:01.247Z,104.40
2023-04-22T22:34:33.689Z,92.00
